Time;durP1;ratioP1;P1;durP2;ratioP2;P2;SDS_P1;SDS_P2;PMS_P1;PMS_P2;Temp;Humidity;BMP_temperature;BMP_pressure;BME280_temperature;BME280_humidity;BME280_pressure;Samples;Min_cycle;Max_cycle;Signal;HPM_P1;HPM_P2
2022/03/09 00:01:40;;;;;;;26.30;14.80;;;;;;;3.21;71.35;101108.15;88095;1277;98698;-60
2022/03/09 00:03:50;;;;;;;25.30;13.80;;;;;;;3.17;71.22;101108.27;88106;1277;87664;-62
2022/03/09 00:05:58;;;;;;;24.60;13.80;;;;;;;3.14;71.39;101103.23;88099;1277;96253;-60
2022/03/09 00:08:08;;;;;;;25.30;12.80;;;;;;;3.12;71.37;101102.48;88064;1277;79956;-61
2022/03/09 00:10:20;;;;;;;21.30;12.70;;;;;;;3.12;71.46;101099.95;88124;1277;81201;-60
2022/03/09 00:12:32;;;;;;;22.50;12.40;;;;;;;3.12;71.55;101101.21;88065;1277;98378;-60
2022/03/09 00:14:44;;;;;;;20.30;12.00;;;;;;;3.12;71.58;101095.90;88104;1277;88975;-60
2022/03/09 00:16:53;;;;;;;22.60;12.00;;;;;;;3.12;71.59;101095.02;88005;1279;94521;-76
2022/03/09 00:19:02;;;;;;;21.80;11.90;;;;;;;3.12;71.71;101098.71;88100;1277;77863;-75
2022/03/09 00:21:14;;;;;;;23.10;11.50;;;;;;;3.11;71.74;101097.73;88104;1277;81520;-75
2022/03/09 00:23:23;;;;;;;20.90;11.70;;;;;;;3.12;71.78;101097.13;88053;1277;99436;-61
2022/03/09 00:25:32;;;;;;;22.20;12.10;;;;;;;3.13;71.76;101099.00;88132;1277;89411;-61
2022/03/09 00:27:41;;;;;;;20.80;11.70;;;;;;;3.15;71.70;101098.52;87971;1279;95121;-76
2022/03/09 00:29:50;;;;;;;19.50;11.40;;;;;;;3.14;71.84;101100.89;88116;1277;77766;-75
2022/03/09 00:31:58;;;;;;;23.60;13.10;;;;;;;3.14;71.88;101102.11;88108;1277;83592;-76
2022/03/09 00:34:11;;;;;;;22.80;11.40;;;;;;;3.13;71.93;101105.80;88104;1277;98591;-76
2022/03/09 00:36:19;;;;;;;21.70;11.90;;;;;;;3.11;71.74;101103.98;88099;1276;88541;-75
2022/03/09 00:38:28;;;;;;;23.10;11.60;;;;;;;3.09;71.85;101107.86;88102;1277;95437;-76
2022/03/09 00:40:41;;;;;;;20.50;12.40;;;;;;;3.07;71.85;101107.37;88097;1277;78230;-75
2022/03/09 00:42:50;;;;;;;22.20;12.50;;;;;;;3.05;71.80;101109.27;88121;1277;81121;-60
2022/03/09 00:44:59;;;;;;;23.70;11.80;;;;;;;3.04;71.85;101104.22;88110;1277;98058;-61
2022/03/09 00:47:12;;;;;;;19.50;11.10;;;;;;;3.03;71.85;101101.81;88098;1277;89210;-75
2022/03/09 00:49:23;;;;;;;17.70;10.80;;;;;;;3.02;72.06;101102.23;88089;1277;95482;-75
2022/03/09 00:51:32;;;;;;;22.60;12.00;;;;;;;3.01;72.02;101099.66;88105;1278;78915;-60
2022/03/09 00:53:45;;;;;;;25.00;11.90;;;;;;;2.99;72.03;101093.92;88081;1277;80763;-60
2022/03/09 00:55:53;;;;;;;21.80;11.50;;;;;;;2.99;72.08;101097.42;88120;1277;98980;-60
2022/03/09 00:58:05;;;;;;;19.50;11.20;;;;;;;3.03;72.09;101096.98;88126;1277;89471;-63
2022/03/09 01:00:19;;;;;;;19.00;11.60;;;;;;;3.06;72.12;101096.74;88094;1277;94447;-60
2022/03/09 01:02:28;;;;;;;21.60;12.70;;;;;;;3.10;72.11;101096.40;88123;1277;77323;-76
2022/03/09 01:04:37;;;;;;;22.10;12.60;;;;;;;3.12;72.14;101096.63;88110;1277;81284;-75
2022/03/09 01:06:50;;;;;;;25.70;13.10;;;;;;;3.11;72.18;101093.33;88106;1277;98399;-61
2022/03/09 01:09:02;;;;;;;23.70;12.50;;;;;;;3.10;72.09;101093.61;88049;1278;88297;-64
2022/03/09 01:11:14;;;;;;;23.10;12.30;;;;;;;3.07;71.99;101090.96;88109;1277;93116;-64
2022/03/09 01:13:23;;;;;;;23.10;12.80;;;;;;;3.06;72.03;101091.98;88090;1277;78727;-75
2022/03/09 01:15:32;;;;;;;21.90;12.20;;;;;;;3.05;72.07;101091.35;88112;1277;82619;-76
2022/03/09 01:17:44;;;;;;;25.10;12.60;;;;;;;3.04;72.10;101087.16;88134;1277;98060;-76
2022/03/09 01:19:57;;;;;;;21.50;12.60;;;;;;;3.02;72.09;101082.84;88082;1277;87615;-76
2022/03/09 01:22:09;;;;;;;19.80;12.50;;;;;;;3.04;72.03;101082.70;88106;1277;94369;-76
2022/03/09 01:24:18;;;;;;;22.50;13.20;;;;;;;3.03;72.03;101080.45;88112;1277;81739;-76
2022/03/09 01:26:27;;;;;;;24.40;13.70;;;;;;;3.00;72.13;101077.63;88082;1277;82901;-60
2022/03/09 01:28:39;;;;;;;25.30;13.60;;;;;;;3.02;72.29;101078.61;88089;1277;98877;-60
2022/03/09 01:30:48;;;;;;;24.20;13.80;;;;;;;3.04;72.14;101077.52;88113;1277;89871;-60
2022/03/09 01:33:00;;;;;;;24.50;14.20;;;;;;;3.07;72.31;101079.95;88068;1277;94011;-76
2022/03/09 01:35:11;;;;;;;24.00;12.90;;;;;;;3.08;72.20;101080.60;88086;1277;80791;-76
2022/03/09 01:37:20;;;;;;;23.20;13.00;;;;;;;3.06;72.29;101080.95;88111;1277;83179;-60
2022/03/09 01:39:29;;;;;;;23.60;13.80;;;;;;;3.04;72.35;101078.20;88072;1277;97511;-61
2022/03/09 01:41:38;;;;;;;22.60;12.80;;;;;;;3.06;72.25;101079.50;88061;1277;89726;-75
2022/03/09 01:44:04;;;;;;;21.20;12.40;;;;;;;3.09;72.23;101079.43;88076;1277;95282;-76
2022/03/09 01:46:13;;;;;;;21.30;12.10;;;;;;;3.12;72.30;101074.19;88093;1277;77934;-66
2022/03/09 01:48:22;;;;;;;20.60;12.50;;;;;;;3.14;72.28;101072.98;88112;1277;81576;-75
2022/03/09 01:50:32;;;;;;;21.50;11.90;;;;;;;3.16;72.33;101072.81;88109;1277;99646;-76
2022/03/09 01:52:44;;;;;;;23.70;13.00;;;;;;;3.19;72.26;101069.33;88105;1277;87685;-75
2022/03/09 01:54:54;;;;;;;21.90;12.40;;;;;;;3.18;72.28;101062.52;88101;1277;95290;-75
2022/03/09 01:57:05;;;;;;;20.90;12.00;;;;;;;3.11;72.24;101063.81;88074;1277;79179;-61
2022/03/09 01:59:18;;;;;;;21.60;11.80;;;;;;;3.11;72.12;101062.91;88140;1277;81243;-61
2022/03/09 02:01:27;;;;;;;16.20;9.00;;;;;;;3.10;72.07;101066.54;88090;1277;100417;-75
2022/03/09 02:03:37;;;;;;;21.80;13.50;;;;;;;3.08;72.08;101069.14;88080;1277;86817;-77
2022/03/09 02:05:46;;;;;;;21.20;12.70;;;;;;;3.07;72.15;101067.34;88093;1277;94366;-75
2022/03/09 02:10:25;;;;;;;21.80;12.00;;;;;;;3.04;72.18;101062.40;88099;1277;81846;-62
2022/03/09 02:12:34;;;;;;;22.50;11.40;;;;;;;3.05;72.18;101059.67;88123;1277;99989;-75
2022/03/09 02:14:45;;;;;;;19.00;11.40;;;;;;;3.04;72.20;101053.86;88102;1277;88796;-75
2022/03/09 02:16:58;;;;;;;19.80;10.80;;;;;;;3.05;72.16;101043.77;88105;1277;92885;-59
2022/03/09 02:19:11;;;;;;;19.30;11.80;;;;;;;3.07;72.24;101047.93;88062;1277;81198;-61
2022/03/09 02:21:24;;;;;;;18.80;10.70;;;;;;;3.08;72.09;101049.27;88129;1277;81477;-74
2022/03/09 02:23:33;;;;;;;19.10;10.40;;;;;;;3.08;72.18;101045.50;88104;1276;99984;-76
2022/03/09 02:25:46;;;;;;;18.50;10.50;;;;;;;3.10;72.15;101042.18;88051;1278;88919;-78
2022/03/09 02:28:01;;;;;;;18.50;10.20;;;;;;;3.10;72.16;101047.30;88085;1277;93967;-61
2022/03/09 02:30:15;;;;;;;19.50;10.90;;;;;;;3.10;72.13;101049.64;88064;1277;78592;-61
2022/03/09 02:32:27;;;;;;;16.80;10.10;;;;;;;3.11;72.26;101048.85;88046;1277;83024;-77
2022/03/09 02:34:36;;;;;;;17.70;10.40;;;;;;;3.10;72.17;101053.02;88047;1279;99788;-77
2022/03/09 02:36:48;;;;;;;18.80;10.70;;;;;;;3.11;72.15;101054.14;88106;1276;87839;-61
2022/03/09 02:39:01;;;;;;;18.70;10.70;;;;;;;3.13;72.16;101055.80;88081;1276;95185;-61
2022/03/09 02:41:10;;;;;;;19.90;11.60;;;;;;;3.13;72.05;101059.70;88079;1276;81973;-62
2022/03/09 02:43:19;;;;;;;15.70;10.50;;;;;;;3.14;71.99;101054.78;88099;1276;80868;-62
2022/03/09 02:45:28;;;;;;;18.00;11.50;;;;;;;3.15;72.01;101055.06;88074;1276;97556;-60
2022/03/09 02:47:39;;;;;;;19.20;10.30;;;;;;;3.15;71.97;101055.05;88060;1279;89594;-75
2022/03/09 02:49:48;;;;;;;19.70;11.10;;;;;;;3.17;72.01;101058.67;88079;1277;93669;-75
2022/03/09 02:52:00;;;;;;;19.00;11.40;;;;;;;3.18;72.00;101053.95;88092;1276;79514;-75
2022/03/09 02:54:12;;;;;;;18.90;10.30;;;;;;;3.17;71.77;101057.19;88034;1279;79745;-76
2022/03/09 02:56:24;;;;;;;16.90;10.60;;;;;;;3.17;72.00;101051.55;88070;1276;99133;-76
2022/03/09 02:58:33;;;;;;;16.40;10.10;;;;;;;3.17;71.85;101049.00;88062;1277;89304;-77
2022/03/09 03:00:44;;;;;;;17.70;10.80;;;;;;;3.16;71.92;101048.90;88082;1277;93345;-76
2022/03/09 03:02:53;;;;;;;19.00;10.80;;;;;;;3.17;71.93;101048.11;88113;1276;80003;-76
2022/03/09 03:05:06;;;;;;;19.40;11.00;;;;;;;3.17;71.87;101046.89;88105;1276;82225;-75
2022/03/09 03:07:15;;;;;;;19.10;10.00;;;;;;;3.18;71.94;101050.16;88085;1276;100481;-61
2022/03/09 03:09:27;;;;;;;18.60;11.20;;;;;;;3.19;71.82;101048.67;88126;1276;88595;-61
2022/03/09 03:11:36;;;;;;;19.50;10.50;;;;;;;3.20;71.77;101050.02;88084;1276;93257;-60
2022/03/09 03:13:49;;;;;;;20.10;11.40;;;;;;;3.21;71.75;101045.98;88100;1276;79189;-61
2022/03/09 03:15:58;;;;;;;18.00;10.20;;;;;;;3.22;71.76;101039.02;88132;1276;82568;-61
2022/03/09 03:18:09;;;;;;;16.40;9.80;;;;;;;3.19;71.71;101038.88;88103;1276;97867;-61
2022/03/09 03:20:21;;;;;;;18.30;10.90;;;;;;;3.20;71.84;101037.91;88041;1279;88916;-61
2022/03/09 03:22:30;;;;;;;17.60;10.10;;;;;;;3.17;71.86;101034.05;88070;1277;93267;-73
2022/03/09 03:24:38;;;;;;;19.40;11.40;;;;;;;3.17;71.81;101030.15;88075;1276;79087;-78
2022/03/09 03:26:47;;;;;;;18.60;10.80;;;;;;;3.18;71.81;101026.92;88074;1276;80320;-79
2022/03/09 03:28:58;;;;;;;21.60;11.50;;;;;;;3.19;71.77;101031.64;88098;1276;99457;-79
2022/03/09 03:31:14;;;;;;;18.00;10.70;;;;;;;3.16;71.85;101032.75;88090;1276;89360;-78
2022/03/09 03:33:24;;;;;;;21.00;11.60;;;;;;;3.13;71.93;101031.55;88078;1276;95305;-78
2022/03/09 03:35:33;;;;;;;20.90;12.00;;;;;;;3.11;71.86;101034.23;88117;1276;81872;-79
2022/03/09 03:37:43;;;;;;;22.00;11.30;;;;;;;3.11;71.86;101036.20;87799;1276;385920;-77
2022/03/09 03:39:52;;;;;;;20.60;12.20;;;;;;;3.11;71.88;101034.02;88085;1276;100088;-76
2022/03/09 03:42:01;;;;;;;20.40;11.10;;;;;;;3.11;71.85;101032.25;88098;1276;88821;-77
2022/03/09 03:44:10;;;;;;;23.80;12.90;;;;;;;3.11;71.60;101030.48;88089;1276;95625;-75
2022/03/09 03:46:19;;;;;;;26.70;12.80;;;;;;;3.09;71.87;101032.83;88066;1277;81141;-61
2022/03/09 03:48:28;;;;;;;23.00;13.40;;;;;;;3.05;71.80;101033.46;88122;1276;80662;-61
2022/03/09 03:50:37;;;;;;;20.70;11.90;;;;;;;3.04;71.85;101028.94;88066;1276;99579;-61
2022/03/09 03:52:47;;;;;;;23.80;13.10;;;;;;;3.04;71.81;101033.02;88080;1276;89104;-62
2022/03/09 03:54:56;;;;;;;20.60;11.40;;;;;;;3.02;71.77;101028.08;88123;1276;92247;-61
2022/03/09 03:57:08;;;;;;;19.60;12.10;;;;;;;3.01;71.84;101024.38;88066;1276;79160;-76
2022/03/09 03:59:20;;;;;;;20.90;12.10;;;;;;;3.01;71.90;101020.83;88103;1276;82187;-75
2022/03/09 04:01:29;;;;;;;20.20;11.40;;;;;;;3.01;71.96;101017.61;88069;1276;97786;-63
2022/03/09 04:03:41;;;;;;;21.40;11.50;;;;;;;2.99;71.96;101019.55;88100;1276;89521;-60
2022/03/09 04:05:52;;;;;;;20.30;11.10;;;;;;;2.98;71.92;101016.93;88069;1276;95181;-61
2022/03/09 04:08:05;;;;;;;22.00;12.00;;;;;;;2.97;71.95;101018.30;88075;1276;79609;-76
2022/03/09 04:10:17;;;;;;;18.90;11.50;;;;;;;2.96;72.07;101022.77;88073;1276;80848;-76
2022/03/09 04:12:26;;;;;;;22.30;11.80;;;;;;;2.97;72.05;101029.88;88077;1276;98970;-76
2022/03/09 04:14:39;;;;;;;20.30;11.70;;;;;;;2.96;72.06;101036.36;88094;1276;89469;-75
2022/03/09 04:16:48;;;;;;;19.10;12.10;;;;;;;2.94;72.10;101041.10;88094;1276;93583;-61
2022/03/09 04:19:00;;;;;;;20.20;12.20;;;;;;;2.94;72.10;101042.88;88092;1275;80233;-60
2022/03/09 04:21:12;;;;;;;21.90;12.20;;;;;;;2.95;72.08;101038.95;88110;1276;80466;-61
2022/03/09 04:23:24;;;;;;;17.90;10.80;;;;;;;2.93;72.02;101041.23;88098;1276;99694;-62
2022/03/09 04:25:33;;;;;;;21.00;12.10;;;;;;;2.92;72.06;101038.27;88093;1276;87828;-61
2022/03/09 04:27:42;;;;;;;19.30;11.80;;;;;;;2.91;72.21;101033.50;88085;1276;93809;-76
2022/03/09 04:29:54;;;;;;;21.90;12.20;;;;;;;2.90;72.17;101027.91;88032;1279;79431;-76
2022/03/09 04:32:04;;;;;;;19.10;11.20;;;;;;;2.91;72.16;101023.88;88065;1277;81878;-75
2022/03/09 04:34:16;;;;;;;22.20;11.70;;;;;;;2.92;72.09;101024.89;88117;1276;97340;-76
2022/03/09 04:36:25;;;;;;;20.80;11.20;;;;;;;2.94;72.10;101025.12;88111;1276;88647;-60
2022/03/09 04:38:37;;;;;;;20.30;12.10;;;;;;;2.93;72.15;101026.64;88075;1276;93560;-60
2022/03/09 04:40:49;;;;;;;20.20;11.70;;;;;;;2.93;72.13;101027.19;88086;1276;79182;-61
2022/03/09 04:42:58;;;;;;;20.80;12.10;;;;;;;2.92;72.15;101027.26;88150;1276;80917;-60
2022/03/09 04:45:10;;;;;;;19.80;11.90;;;;;;;2.90;72.15;101024.72;88098;1276;98279;-61
2022/03/09 04:47:18;;;;;;;20.70;11.60;;;;;;;2.86;72.16;101021.48;88131;1276;89434;-75
2022/03/09 04:49:28;;;;;;;19.10;12.10;;;;;;;2.84;72.07;101022.41;88035;1279;95006;-76
2022/03/09 04:51:40;;;;;;;21.60;12.50;;;;;;;2.81;72.28;101021.73;88054;1277;79824;-75
2022/03/09 04:53:49;;;;;;;28.50;15.10;;;;;;;2.78;72.21;101028.38;88068;1279;83412;-76
2022/03/09 04:55:58;;;;;;;22.50;14.10;;;;;;;2.76;72.29;101036.18;88076;1276;100483;-75
2022/03/09 04:58:10;;;;;;;27.60;14.00;;;;;;;2.76;72.27;101037.61;88098;1276;87931;-62
2022/03/09 05:00:19;;;;;;;27.20;14.90;;;;;;;2.78;72.24;101041.39;88108;1276;94737;-60
2022/03/09 05:02:32;;;;;;;23.10;14.60;;;;;;;2.81;72.37;101040.40;88055;1277;81698;-76
2022/03/09 05:04:44;;;;;;;27.00;13.90;;;;;;;2.80;72.50;101037.11;88060;1277;80842;-75
2022/03/09 05:06:56;;;;;;;25.30;13.40;;;;;;;2.81;72.44;101037.25;88070;1276;99032;-63
2022/03/09 05:09:05;;;;;;;22.60;13.00;;;;;;;2.81;72.47;101038.25;88100;1276;86803;-62
2022/03/09 05:11:14;;;;;;;23.00;12.80;;;;;;;2.82;72.53;101049.44;88100;1276;96424;-64
2022/03/09 05:13:25;;;;;;;22.60;12.70;;;;;;;2.83;72.50;101054.86;88102;1276;79141;-62
2022/03/09 05:15:35;;;;;;;24.50;13.00;;;;;;;2.81;72.49;101057.65;88100;1276;82375;-61
2022/03/09 05:17:47;;;;;;;23.50;12.60;;;;;;;2.82;72.51;101061.34;88090;1276;98769;-61
2022/03/09 05:19:59;;;;;;;22.60;12.40;;;;;;;2.82;72.43;101063.80;88097;1276;88550;-63
2022/03/09 05:22:08;;;;;;;21.50;12.50;;;;;;;2.84;72.53;101067.55;88108;1276;95756;-61
2022/03/09 05:24:20;;;;;;;22.00;13.50;;;;;;;2.86;72.53;101072.05;88063;1276;81289;-61
2022/03/09 05:26:29;;;;;;;19.90;12.00;;;;;;;2.89;72.48;101075.01;88136;1276;80086;-75
2022/03/09 05:28:38;;;;;;;23.60;13.30;;;;;;;2.90;72.58;101079.48;88112;1276;98860;-75
2022/03/09 05:30:47;;;;;;;19.80;12.90;;;;;;;2.92;72.62;101082.52;88079;1276;88659;-75
2022/03/09 05:32:59;;;;;;;20.60;11.70;;;;;;;2.93;72.54;101081.94;88069;1276;94761;-76
2022/03/09 05:35:10;;;;;;;21.40;12.40;;;;;;;2.95;72.51;101084.41;88114;1276;78350;-76
2022/03/09 05:37:22;;;;;;;21.70;11.40;;;;;;;2.96;72.54;101088.78;88122;1276;81279;-76
2022/03/09 05:39:31;;;;;;;21.50;13.20;;;;;;;2.98;72.54;101090.42;88129;1276;99904;-75
2022/03/09 05:41:41;;;;;;;20.60;12.40;;;;;;;3.01;72.53;101093.39;88105;1276;87918;-60
2022/03/09 05:43:50;;;;;;;19.10;11.70;;;;;;;3.03;72.70;101094.46;88102;1276;92860;-61
2022/03/09 05:45:59;;;;;;;22.10;12.10;;;;;;;3.05;72.55;101093.30;88090;1276;79050;-62
2022/03/09 05:48:09;;;;;;;19.50;12.20;;;;;;;3.06;72.50;101091.73;88127;1276;79577;-61
2022/03/09 05:50:21;;;;;;;20.50;12.40;;;;;;;3.07;72.50;101092.42;88121;1276;100095;-59
2022/03/09 05:52:30;;;;;;;21.00;11.90;;;;;;;3.08;72.54;101091.56;88110;1276;88816;-76
2022/03/09 05:54:45;;;;;;;21.50;12.00;;;;;;;3.12;72.36;101090.72;88093;1276;96575;-75
2022/03/09 05:56:57;;;;;;;20.20;11.80;;;;;;;3.14;72.40;101093.76;88074;1276;81356;-61
2022/03/09 05:59:06;;;;;;;21.20;12.30;;;;;;;3.15;72.58;101098.11;88077;1277;82807;-62
2022/03/09 06:01:20;;;;;;;22.50;12.50;;;;;;;3.15;72.45;101102.23;88096;1277;99679;-75
2022/03/09 06:03:30;;;;;;;20.30;12.20;;;;;;;3.17;72.32;101097.45;88167;1276;88643;-79
2022/03/09 06:05:39;;;;;;;24.40;13.20;;;;;;;3.20;72.32;101101.77;88108;1276;93878;-78
2022/03/09 06:07:52;;;;;;;21.20;12.50;;;;;;;3.24;72.31;101096.17;88094;1276;78857;-76
2022/03/09 06:10:01;;;;;;;22.20;12.00;;;;;;;3.27;72.35;101095.35;88087;1276;81911;-77
2022/03/09 06:12:15;;;;;;;24.80;13.20;;;;;;;3.31;72.45;101094.33;88104;1276;99602;-78
2022/03/09 06:14:24;;;;;;;22.10;13.80;;;;;;;3.38;72.30;101097.11;88117;1276;88001;-77
2022/03/09 06:16:34;;;;;;;22.20;13.50;;;;;;;3.44;72.25;101100.86;88062;1278;95648;-79
2022/03/09 06:18:47;;;;;;;23.90;13.40;;;;;;;3.50;72.09;101100.91;88090;1276;77565;-75
2022/03/09 06:20:57;;;;;;;21.90;12.90;;;;;;;3.52;72.11;101101.04;88328;1268;82267;-72
2022/03/09 06:23:06;;;;;;;21.90;12.50;;;;;;;3.53;71.95;101098.16;88274;1274;98497;-73
2022/03/09 06:25:16;;;;;;;18.90;12.90;;;;;;;3.60;71.81;101099.52;88270;1274;88720;-62
2022/03/09 06:27:25;;;;;;;19.30;12.30;;;;;;;3.65;71.77;101101.64;88170;1275;95152;-61
2022/03/09 06:29:34;;;;;;;22.70;13.10;;;;;;;3.66;71.56;101105.63;88275;1274;79440;-75
2022/03/09 06:31:44;;;;;;;20.40;11.80;;;;;;;3.68;71.40;101104.02;88308;1274;82394;-74
2022/03/09 06:33:53;;;;;;;23.10;12.60;;;;;;;3.66;71.36;101107.98;88311;1274;98726;-76
2022/03/09 06:36:07;;;;;;;25.00;12.80;;;;;;;3.64;71.24;101109.19;88304;1274;87697;-62
2022/03/09 06:38:19;;;;;;;18.40;11.70;;;;;;;3.65;71.34;101110.84;88279;1274;95961;-62
2022/03/09 06:40:28;;;;;;;19.30;11.50;;;;;;;3.67;71.27;101112.67;88320;1273;79462;-75
2022/03/09 06:42:40;;;;;;;20.10;11.90;;;;;;;3.69;71.08;101109.12;88322;1274;79310;-75
2022/03/09 06:44:49;;;;;;;18.30;11.60;;;;;;;3.71;71.15;101115.13;88243;1274;100130;-59
2022/03/09 06:47:04;;;;;;;19.80;11.00;;;;;;;3.73;71.06;101115.70;88252;1274;89247;-61
2022/03/09 06:49:14;;;;;;;17.60;10.90;;;;;;;3.73;70.92;101120.70;88209;1274;95665;-65
2022/03/09 06:51:23;;;;;;;18.70;11.40;;;;;;;3.81;70.76;101118.05;88221;1274;80371;-61
2022/03/09 06:53:32;;;;;;;16.60;10.60;;;;;;;3.88;70.58;101122.30;88171;1274;81070;-61
2022/03/09 06:55:41;;;;;;;16.70;9.90;;;;;;;3.92;70.38;101126.55;88255;1274;99724;-80
2022/03/09 06:57:50;;;;;;;18.90;9.90;;;;;;;4.04;70.43;101113.05;88298;1273;88145;-78
2022/03/09 06:59:58;;;;;;;15.80;10.30;;;;;;;4.17;70.47;101116.38;88304;1274;93538;-79
2022/03/09 07:02:11;;;;;;;17.90;9.80;;;;;;;4.32;70.50;101118.83;88294;1274;80035;-79
2022/03/09 07:04:23;;;;;;;18.60;11.10;;;;;;;4.54;70.54;101114.77;88318;1274;83409;-61
2022/03/09 07:06:32;;;;;;;21.80;10.90;;;;;;;4.84;70.21;101113.77;88292;1274;100500;-64
2022/03/09 07:08:41;;;;;;;17.70;10.20;;;;;;;5.10;69.97;101114.11;88283;1274;88418;-61
2022/03/09 07:10:50;;;;;;;22.70;11.90;;;;;;;5.44;69.68;101111.14;88289;1274;95081;-61
2022/03/09 07:12:59;;;;;;;27.20;14.50;;;;;;;5.84;69.41;101102.81;88305;1273;76874;-64
2022/03/09 07:15:10;;;;;;;16.00;10.20;;;;;;;6.25;69.04;101103.02;88268;1273;82167;-76
2022/03/09 07:17:20;;;;;;;15.40;9.80;;;;;;;6.70;68.71;101102.51;88314;1274;98961;-77
2022/03/09 07:19:28;;;;;;;15.30;8.80;;;;;;;6.88;67.84;101099.89;88293;1274;87298;-63
2022/03/09 07:21:38;;;;;;;15.20;9.40;;;;;;;6.73;67.14;101101.98;88250;1272;95133;-62
2022/03/09 07:23:49;;;;;;;13.20;8.80;;;;;;;6.63;66.87;101096.01;88278;1272;80042;-62
2022/03/09 07:25:58;;;;;;;13.70;8.10;;;;;;;6.49;66.39;101095.76;88312;1274;83260;-79
2022/03/09 07:28:08;;;;;;;13.00;8.00;;;;;;;6.31;66.20;101095.85;88268;1274;99795;-75
2022/03/09 07:30:17;;;;;;;13.00;7.40;;;;;;;6.29;65.99;101097.73;88296;1274;88069;-62
2022/03/09 07:32:26;;;;;;;13.50;7.70;;;;;;;6.30;65.71;101092.01;88285;1273;93128;-61
2022/03/09 07:34:36;;;;;;;11.50;7.70;;;;;;;6.26;65.52;101088.49;88273;1272;76974;-77
2022/03/09 07:36:47;;;;;;;14.70;7.20;;;;;;;6.22;65.35;101087.46;88266;1273;82392;-77
2022/03/09 07:38:56;;;;;;;13.90;8.40;;;;;;;6.21;64.94;101085.77;88293;1271;97599;-76
2022/03/09 07:41:05;;;;;;;15.90;8.90;;;;;;;6.27;64.97;101080.72;88314;1274;88203;-77
2022/03/09 07:43:14;;;;;;;13.40;8.50;;;;;;;6.30;64.99;101082.69;88278;1274;95961;-77
2022/03/09 07:45:24;;;;;;;13.10;8.20;;;;;;;6.42;64.75;101083.92;88300;1274;79944;-60
2022/03/09 07:47:37;;;;;;;14.00;8.60;;;;;;;6.50;64.59;101082.17;88260;1274;81607;-62
2022/03/09 07:49:49;;;;;;;14.20;8.70;;;;;;;6.52;64.64;101078.44;88283;1273;100108;-77
2022/03/09 07:51:58;;;;;;;15.40;8.30;;;;;;;6.59;64.50;101080.29;88292;1274;89161;-77
2022/03/09 07:54:08;;;;;;;12.40;7.40;;;;;;;6.66;64.05;101075.34;88282;1274;95466;-79
2022/03/09 07:56:17;;;;;;;12.40;7.40;;;;;;;6.74;63.83;101075.29;88243;1274;78873;-77
2022/03/09 07:58:26;;;;;;;12.00;7.80;;;;;;;6.79;63.58;101077.08;88271;1274;80167;-79
2022/03/09 08:00:35;;;;;;;14.60;7.70;;;;;;;6.90;63.46;101073.67;88251;1274;98557;-75
2022/03/09 08:02:44;;;;;;;11.30;7.30;;;;;;;6.96;63.32;101076.46;88284;1274;88350;-75
2022/03/09 08:04:53;;;;;;;8.70;5.90;;;;;;;6.97;63.06;101077.45;88273;1274;93325;-61
2022/03/09 08:07:02;;;;;;;8.10;5.40;;;;;;;6.99;62.52;101071.70;88275;1274;77935;-61
2022/03/09 08:09:13;;;;;;;10.90;6.50;;;;;;;7.04;62.39;101077.64;88273;1274;82984;-71
2022/03/09 08:11:22;;;;;;;12.80;7.40;;;;;;;7.14;62.12;101078.85;88251;1273;98767;-69
2022/03/09 08:13:34;;;;;;;11.00;6.90;;;;;;;7.19;62.01;101074.36;88167;1274;89203;-76
2022/03/09 08:15:46;;;;;;;8.60;5.30;;;;;;;7.33;61.94;101076.05;88281;1274;94148;-75
2022/03/09 08:17:55;;;;;;;8.80;5.40;;;;;;;7.38;61.38;101077.48;88254;1274;77034;-75
2022/03/09 08:20:06;;;;;;;9.80;5.80;;;;;;;7.44;61.25;101080.13;88312;1274;80483;-61
2022/03/09 08:22:18;;;;;;;14.00;6.30;;;;;;;7.48;61.00;101079.13;88277;1274;99737;-61
2022/03/09 08:24:32;;;;;;;9.10;6.20;;;;;;;7.55;60.80;101081.98;88294;1274;89497;-76
2022/03/09 08:26:41;;;;;;;9.30;6.00;;;;;;;7.52;60.65;101082.15;88261;1274;95455;-75
2022/03/09 08:28:54;;;;;;;10.30;5.60;;;;;;;7.52;60.70;101080.00;88281;1274;77389;-75
2022/03/09 08:31:07;;;;;;;10.80;6.20;;;;;;;7.61;60.62;101079.59;88279;1273;80927;-79
2022/03/09 08:33:20;;;;;;;12.10;6.30;;;;;;;7.61;60.45;101077.27;88304;1274;97442;-79
2022/03/09 08:35:32;;;;;;;;;;;;;;;7.68;60.11;101076.39;88342;1274;89434;-79
2022/03/09 08:37:42;;;;;;;9.40;5.70;;;;;;;7.82;59.96;101079.73;88290;1274;94062;-60
2022/03/09 08:39:54;;;;;;;9.20;5.50;;;;;;;7.89;59.86;101077.21;88279;1274;77201;-60
2022/03/09 08:42:08;;;;;;;9.60;5.30;;;;;;;8.01;59.35;101078.80;88287;1274;83226;-62
2022/03/09 08:44:20;;;;;;;;;;;;;;;8.01;59.30;101080.81;88314;1272;99294;-62
2022/03/09 08:46:32;;;;;;;10.40;4.60;;;;;;;8.12;59.08;101083.25;88276;1274;88091;-59
2022/03/09 08:48:41;;;;;;;11.70;5.10;;;;;;;8.19;58.87;101083.58;88254;1274;95611;-61
2022/03/09 08:50:53;;;;;;;7.80;4.80;;;;;;;8.34;58.86;101084.92;88267;1274;78312;-79
2022/03/09 08:53:23;;;;;;;9.40;4.50;;;;;;;8.50;58.62;101089.30;88834;1265;83068;31
2022/03/09 08:55:32;;;;;;;6.80;4.20;;;;;;;8.56;58.25;101092.52;88009;1276;98976;-77
2022/03/09 08:57:44;;;;;;;7.50;4.10;;;;;;;8.59;58.12;101088.37;88109;1276;88651;-78
2022/03/09 08:59:53;;;;;;;7.60;4.10;;;;;;;8.65;57.64;101088.27;88190;1274;94152;-78
2022/03/09 09:02:03;;;;;;;8.20;4.20;;;;;;;8.74;57.63;101089.10;88187;1274;78424;-78
2022/03/09 09:04:13;;;;;;;7.20;4.30;;;;;;;8.78;57.46;101088.34;88224;1274;83039;-77
2022/03/09 09:06:22;;;;;;;6.50;3.90;;;;;;;8.83;57.30;101088.14;88185;1277;98516;-78
2022/03/09 09:08:35;;;;;;;8.30;3.50;;;;;;;8.87;57.09;101088.05;88202;1277;86300;-78
2022/03/09 09:10:44;;;;;;;10.30;3.10;;;;;;;8.96;56.66;101089.37;88180;1276;93213;-77
2022/03/09 09:12:54;;;;;;;6.00;3.30;;;;;;;8.91;56.64;101088.88;88105;1276;78646;-78
2022/03/09 09:15:07;;;;;;;5.40;3.00;;;;;;;8.90;56.30;101093.66;88156;1276;82193;-78
2022/03/09 09:17:16;;;;;;;4.60;2.60;;;;;;;8.95;55.94;101091.23;88084;1278;97704;-73
2022/03/09 09:19:25;;;;;;;7.10;2.90;;;;;;;8.93;55.85;101092.79;88188;1277;87769;-72
2022/03/09 09:21:34;;;;;;;5.10;2.50;;;;;;;8.98;55.68;101089.41;88162;1276;94422;-74
2022/03/09 09:23:46;;;;;;;5.70;2.30;;;;;;;9.03;55.32;101090.92;88154;1276;79181;-60
2022/03/09 09:25:55;;;;;;;7.20;2.40;;;;;;;9.09;55.01;101095.25;88166;1276;81152;-61
2022/03/09 09:28:05;;;;;;;5.40;2.70;;;;;;;9.09;54.76;101095.12;88154;1277;99739;-61
2022/03/09 09:30:17;;;;;;;4.30;2.40;;;;;;;9.11;54.52;101089.52;88195;1277;89188;-75
2022/03/09 09:32:27;;;;;;;6.30;2.90;;;;;;;9.17;54.36;101086.36;88180;1276;93664;-77
2022/03/09 09:34:36;;;;;;;6.60;2.90;;;;;;;9.18;54.29;101084.91;88162;1277;77698;-59
2022/03/09 09:36:46;;;;;;;5.80;3.30;;;;;;;9.26;54.16;101084.97;88156;1277;82442;-61
2022/03/09 09:38:55;;;;;;;6.30;3.00;;;;;;;9.33;53.93;101083.64;88113;1276;99803;-60
2022/03/09 09:41:08;;;;;;;4.50;2.90;;;;;;;9.37;54.23;101079.27;88094;1276;86741;-61
2022/03/09 09:43:22;;;;;;;4.60;3.90;;;;;;;9.55;54.11;101079.49;88056;1276;95885;-65
2022/03/09 09:45:32;;;;;;;6.10;3.60;;;;;;;9.62;53.72;101079.21;88269;1276;79063;-79
2022/03/09 09:47:45;;;;;;;5.90;3.90;;;;;;;9.57;53.47;101084.63;88099;1277;82836;-60
2022/03/09 09:49:55;;;;;;;5.00;3.00;;;;;;;9.62;53.39;101088.04;88156;1276;99311;-75
2022/03/09 09:52:06;;;;;;;4.00;2.70;;;;;;;9.62;53.29;101084.84;88184;1276;86954;-76
2022/03/09 09:54:15;;;;;;;6.10;2.70;;;;;;;9.55;53.32;101087.09;88175;1276;95788;-77
2022/03/09 09:56:28;;;;;;;7.20;3.20;;;;;;;9.53;53.38;101090.09;88200;1276;77865;-60
2022/03/09 09:58:38;;;;;;;4.30;3.10;;;;;;;9.59;52.94;101092.33;88198;1277;80299;-59
2022/03/09 10:00:48;;;;;;;5.70;3.50;;;;;;;9.74;53.15;101098.41;88098;1276;100212;-60
2022/03/09 10:03:00;;;;;;;7.70;3.30;;;;;;;9.80;53.09;101095.83;88158;1276;87921;-59
2022/03/09 10:05:14;;;;;;;5.10;3.00;;;;;;;9.71;52.68;101101.67;88173;1276;94694;-75
2022/03/09 10:07:27;;;;;;;4.40;3.00;;;;;;;9.63;52.54;101102.52;88190;1275;79045;-76